Latest Weather Observations for Darwin Airport

IDD60801

Issued at 8:01 pm CST Sunday 25 June 2017 (issued every 30 minutes, with the page automatically refreshed every 10 minutes)

About weather observations | Map of weather stations | Latest weather observations for NT | Other Formats
Station Details ID: 014015 Name: DARWIN AIRPORT Lat: -12.42 Lon: 130.89 Height: 30.4 m
Data from the previous 72 hours. | See also: Recent months at Darwin Airport
Date/Time
CST
Temp
°C
App
Temp
°C
Dew
Point
°C
Rel
Hum
%
Delta-T
°C
Wind Press
QNH
hPa
Press
MSL
hPa
Rain since
9am
mm
Dir  Spd
km/h
Gust
km/h
Spd
kts
Gust
kts
25/07:30pm 24.6 25.4 17.4 64 4.5 N 9 13 5 7 1012.1 1011.9 0.0
25/07:00pm 24.9 25.0 17.4 63 4.7 NNE 13 15 7 8 1011.7 1011.5 0.0
25/06:30pm 25.4 24.9 17.0 59 5.2 NNE 15 20 8 11 1011.2 1011.0 0.0
25/06:00pm 26.3 25.1 17.0 56 5.8 N 19 24 10 13 1010.8 1010.6 0.0
25/05:30pm 27.0 26.0 16.5 52 6.5 N 17 22 9 12 1010.7 1010.5 0.0
25/05:00pm 28.0 26.2 15.4 46 7.7 N 19 22 10 12 1010.5 1010.3 0.0
25/04:30pm 28.9 27.4 15.2 43 8.4 N 17 22 9 12 1010.6 1010.4 0.0
25/04:00pm 29.1 27.7 15.6 44 8.3 N 17 20 9 11 1010.7 1010.5 0.0
25/03:30pm 28.8 27.5 15.7 45 8.1 NNW 17 22 9 12 1010.8 1010.6 0.0
25/03:00pm 29.0 27.7 15.7 44 8.2 NNW 17 20 9 11 1010.9 1010.7 0.0
25/02:30pm 29.1 28.0 17.2 48 7.5 NW 19 24 10 13 1011.3 1011.1 0.0
25/02:00pm 28.7 27.9 18.4 53 6.6 WNW 20 26 11 14 1011.8 1011.6 0.0
25/01:30pm 29.8 27.1 12.9 35 10.0 WNW 19 26 10 14 1012.1 1011.9 0.0
25/01:00pm 30.0 28.0 12.8 34 10.2 ESE 15 22 8 12 1012.5 1012.3 0.0
25/12:30pm 29.7 28.0 13.5 37 9.7 E 15 24 8 13 1013.0 1012.8 0.0
25/12:00pm 28.9 27.6 13.7 39 9.1 E 13 24 7 13 1013.4 1013.2 0.0
25/11:30am 28.2 27.5 15.3 45 7.9 E 13 22 7 12 1013.7 1013.5 0.0
25/11:00am 27.3 26.7 15.7 49 7.1 ENE 13 20 7 11 1014.0 1013.8 0.0
25/10:30am 27.3 27.3 16.3 51 6.8 ENE 11 19 6 10 1014.0 1013.8 0.0
25/10:00am 26.1 26.0 16.0 53 6.2 ENE 11 17 6 9 1014.1 1013.9 0.0
25/09:30am 25.7 26.5 17.4 60 5.2 ENE 9 15 5 8 1014.1 1013.9 0.0
25/09:00am 24.6 25.1 18.4 68 3.9 E 13 17 7 9 1014.1 1013.9 0.0
25/08:30am 23.4 25.6 19.7 80 2.4 ESE 7 11 4 6 1014.1 1013.9 0.0
25/08:00am 21.4 23.9 19.8 91 1.0 SE 6 7 3 4 1013.8 1013.6 0.0
25/07:30am 20.2 22.3 19.3 95 0.6 SE 7 7 4 4 1013.6 1013.4 0.0
25/07:11am 20.2 - 19.2 94 0.6 - - - - - 1013.5 1013.3 -
25/07:00am 20.3 22.3 19.2 93 0.7 SE 7 9 4 5 1013.3 1013.1 0.0
25/06:30am 20.3 22.6 19.5 95 0.5 SSE 6 7 3 4 1012.9 1012.7 0.0
25/06:00am 19.3 21.0 18.5 95 0.5 E 7 7 4 4 1012.6 1012.4 0.0
25/05:30am 20.4 22.6 19.6 95 0.5 SSE 7 9 4 5 1012.4 1012.2 0.0
25/05:00am 20.9 22.9 20.0 95 0.6 SSE 9 9 5 5 1012.5 1012.3 0.0
25/04:30am 20.4 22.3 19.0 92 0.9 SSE 7 9 4 5 1012.3 1012.1 0.0
25/04:00am 19.7 21.5 18.4 92 0.8 S 6 7 3 4 1012.2 1012.0 0.0
25/03:30am 19.5 21.7 18.4 93 0.7 SE 4 4 2 2 1012.1 1011.9 0.0
25/03:00am 19.6 22.2 18.5 93 0.7 SE 2 4 1 2 1012.2 1012.0 0.0
25/02:30am 20.0 22.4 18.9 93 0.7 SSE 4 4 2 2 1012.3 1012.1 0.0
25/02:00am 20.0 22.5 19.0 94 0.6 ESE 4 4 2 2 1012.5 1012.3 0.0
25/01:30am 20.3 22.9 19.2 93 0.7 ESE 4 6 2 3 1012.8 1012.6 0.0
25/01:00am 20.4 23.0 19.3 93 0.7 E 4 6 2 3 1012.9 1012.7 0.0
25/12:30am 21.4 24.4 20.0 92 0.9 SE 4 6 2 3 1013.0 1012.8 0.0
25/12:00am 21.2 23.4 19.5 90 1.1 SSE 7 9 4 5 1012.8 1012.6 0.0
 
Date/Time
CST
Temp
°C
App
Temp
°C
Dew
Point
°C
Rel
Hum
%
Delta-T
°C
Wind Press
QNH
hPa
Press
MSL
hPa
Rain since
9am
mm
Dir  Spd
km/h
Gust
km/h
Spd
kts
Gust
kts
24/11:30pm 21.1 23.1 18.7 86 1.5 S 6 7 3 4 1012.5 1012.3 0.0
24/11:00pm 21.8 23.5 18.6 82 2.0 S 7 9 4 5 1012.3 1012.1 0.0
24/10:30pm 20.9 23.3 18.8 88 1.3 SSW 4 6 2 3 1012.2 1012.0 0.0
24/10:00pm 21.7 24.5 18.8 83 1.8 SE 2 6 1 3 1012.1 1011.9 0.0
24/09:30pm 22.2 25.5 19.0 82 2.0 CALM 0 0 0 0 1011.8 1011.6 0.0
24/09:00pm 22.4 24.9 19.1 81 2.1 NE 4 6 2 3 1011.6 1011.4 0.0
24/08:30pm 23.0 25.1 18.9 78 2.6 NNE 6 7 3 4 1011.3 1011.1 0.0
24/08:00pm 23.9 26.0 19.0 74 3.1 N 6 9 3 5 1010.9 1010.7 0.0
24/07:30pm 24.5 26.0 18.9 71 3.6 NNE 9 13 5 7 1010.4 1010.2 0.0
24/07:00pm 25.0 26.6 19.2 70 3.7 NNE 9 11 5 6 1010.0 1009.8 0.0
24/06:30pm 25.8 26.7 19.3 67 4.2 N 13 17 7 9 1009.7 1009.5 0.0
24/06:00pm 26.7 26.5 18.6 61 5.2 N 17 24 9 13 1009.5 1009.3 0.0
24/05:30pm 27.3 26.9 18.0 56 5.9 N 17 22 9 12 1009.4 1009.2 0.0
24/05:00pm 28.5 27.6 17.8 52 6.8 N 19 20 10 11 1009.3 1009.1 0.0
24/04:30pm 29.4 28.6 17.2 47 7.7 NNW 17 20 9 11 1009.2 1009.0 0.0
24/04:00pm 29.3 28.4 17.7 49 7.4 NNW 19 22 10 12 1009.4 1009.2 0.0
24/03:30pm 29.6 28.7 17.7 48 7.6 NW 19 22 10 12 1009.7 1009.5 0.0
24/03:00pm 31.0 30.4 12.2 31 11.1 NNW 7 15 4 8 1009.9 1009.7 0.0
24/02:30pm 31.1 29.0 11.3 29 11.5 SE 13 24 7 13 1010.3 1010.1 0.0
24/02:00pm 30.8 28.8 12.8 33 10.7 ENE 15 24 8 13 1011.0 1010.8 0.0
24/01:30pm 30.0 28.6 12.1 33 10.5 E 11 19 6 10 1011.5 1011.3 0.0
24/01:00pm 29.8 28.0 15.5 42 8.8 ENE 19 26 10 14 1011.9 1011.7 0.0
24/12:30pm 29.7 28.2 16.2 44 8.4 E 19 30 10 16 1012.6 1012.4 0.0
24/12:00pm 28.7 26.8 15.7 45 8.0 E 20 26 11 14 1013.0 1012.8 0.0
24/11:30am 28.0 27.2 17.2 52 6.8 ESE 17 30 9 16 1013.6 1013.4 0.0
24/11:00am 27.3 27.2 17.8 56 6.0 E 15 22 8 12 1013.9 1013.7 0.0
24/10:30am 26.7 26.7 18.2 59 5.4 E 15 19 8 10 1014.2 1014.0 0.0
24/10:00am 26.5 26.1 18.9 63 4.9 ENE 19 26 10 14 1014.4 1014.2 0.0
24/09:30am 25.8 26.4 19.4 67 4.1 ENE 15 22 8 12 1014.4 1014.2 0.0
24/09:00am 25.4 26.4 20.3 73 3.3 ENE 15 20 8 11 1014.1 1013.9 0.0
24/08:30am 24.3 26.8 21.1 82 2.1 E 9 9 5 5 1013.7 1013.5 0.0
24/08:00am 23.4 25.7 20.6 84 1.8 E 9 11 5 6 1013.4 1013.2 0.0
24/07:30am 21.5 23.6 20.1 92 0.9 ESE 9 11 5 6 1013.1 1012.9 0.0
24/07:00am 20.9 23.2 19.8 93 0.7 E 7 9 4 5 1012.7 1012.5 0.0
24/06:30am 21.2 23.1 19.8 92 0.9 ESE 9 11 5 6 1012.5 1012.3 0.0
24/06:00am 21.5 23.5 19.9 91 1.0 ESE 9 11 5 6 1012.3 1012.1 0.0
24/05:30am 20.6 22.8 19.5 93 0.7 E 7 9 4 5 1012.2 1012.0 0.0
24/05:00am 20.3 22.6 19.4 95 0.6 E 6 7 3 4 1012.1 1011.9 0.0
24/04:30am 20.7 23.4 19.4 92 0.8 E 4 6 2 3 1011.9 1011.7 0.0
24/04:00am 20.8 24.0 19.7 93 0.7 ENE 2 4 1 2 1012.1 1011.9 0.0
24/03:30am 20.9 23.8 19.8 93 0.7 ENE 4 4 2 2 1012.2 1012.0 0.0
24/03:00am 21.1 24.0 19.8 92 0.8 E 4 6 2 3 1012.3 1012.1 0.0
24/02:30am 21.6 24.7 20.2 92 0.9 E 4 6 2 3 1012.5 1012.3 0.0
24/02:00am 22.0 24.6 20.5 91 1.0 E 7 9 4 5 1012.6 1012.4 0.0
24/01:30am 22.0 25.0 20.9 93 0.7 ESE 6 7 3 4 1012.9 1012.7 0.0
24/01:00am 22.2 25.3 21.0 93 0.8 E 6 6 3 3 1013.1 1012.9 0.0
24/12:30am 22.2 25.3 21.0 93 0.8 ENE 6 6 3 3 1013.2 1013.0 0.0
24/12:00am 22.6 25.7 21.1 91 1.0 SE 6 7 3 4 1013.0 1012.8 0.0
 
Date/Time
CST
Temp
°C
App
Temp
°C
Dew
Point
°C
Rel
Hum
%
Delta-T
°C
Wind Press
QNH
hPa
Press
MSL
hPa
Rain since
9am
mm
Dir  Spd
km/h
Gust
km/h
Spd
kts
Gust
kts
23/11:30pm 23.9 26.8 21.8 88 1.4 S 9 9 5 5 1013.1 1012.9 0.0
23/11:00pm 24.2 26.7 21.0 82 2.1 S 9 11 5 6 1013.2 1013.0 0.0
23/10:30pm 24.3 27.0 20.6 80 2.4 S 7 9 4 5 1013.2 1013.0 0.0
23/10:00pm 24.2 27.8 20.5 80 2.4 ESE 2 4 1 2 1013.1 1012.9 0.0
23/09:30pm 23.6 27.3 20.7 84 1.9 NE 2 4 1 2 1012.8 1012.6 0.0
23/09:00pm 24.0 27.7 20.8 82 2.1 N 2 6 1 3 1012.7 1012.5 0.0
23/08:30pm 24.7 27.7 20.9 79 2.5 NNE 6 7 3 4 1012.4 1012.2 0.0
23/08:00pm 25.0 27.3 20.6 76 2.9 NNE 9 11 5 6 1012.1 1011.9 0.0
23/07:30pm 25.2 27.1 20.5 75 3.1 NNE 11 13 6 7 1011.7 1011.5 0.0
23/07:00pm 25.6 27.7 20.9 75 3.1 N 11 15 6 8 1011.3 1011.1 0.0
23/06:30pm 26.0 27.6 20.7 72 3.5 N 13 19 7 10 1011.2 1011.0 0.0
23/06:00pm 26.9 27.8 20.0 66 4.5 N 15 19 8 10 1010.9 1010.7 0.0
23/05:30pm 27.6 28.8 20.0 63 5.0 NNE 13 19 7 10 1010.7 1010.5 0.0
23/05:00pm 28.0 28.3 19.7 60 5.4 N 17 20 9 11 1010.6 1010.4 0.0
23/04:30pm 28.7 28.9 19.3 56 6.1 N 17 22 9 12 1010.5 1010.3 0.0
23/04:00pm 29.0 28.6 19.0 54 6.5 N 19 24 10 13 1010.4 1010.2 0.0
23/03:30pm 29.4 29.2 19.4 55 6.5 NNW 19 26 10 14 1010.6 1010.4 0.0
23/03:00pm 29.2 29.7 20.1 58 6.0 NNW 17 20 9 11 1010.9 1010.7 0.0
23/02:30pm 31.4 29.9 16.3 40 9.5 NW 19 22 10 12 1011.3 1011.1 0.0
23/02:00pm 30.3 30.9 16.8 44 8.5 WNW 9 15 5 8 1011.7 1011.5 0.0
23/01:30pm 30.7 31.3 16.7 43 8.8 E 9 19 5 10 1012.1 1011.9 0.0
23/01:00pm 30.2 30.2 17.1 45 8.3 SE 13 20 7 11 1012.8 1012.6 0.0
23/12:30pm 29.3 29.7 17.3 48 7.6 ESE 11 20 6 11 1013.3 1013.1 0.0
23/12:00pm 29.6 29.4 17.5 48 7.7 SE 15 22 8 12 1014.0 1013.8 0.0
23/11:30am 29.0 28.9 17.8 50 7.1 E 15 22 8 12 1014.4 1014.2 0.0
23/11:00am 27.9 27.6 18.2 55 6.2 ESE 17 22 9 12 1014.6 1014.4 0.0
23/10:30am 27.8 28.3 19.3 60 5.5 E 15 20 8 11 1015.0 1014.8 0.0
23/10:00am 26.4 27.2 19.8 67 4.3 E 15 20 8 11 1015.2 1015.0 0.0
23/09:30am 25.2 26.3 18.1 64 4.5 ESE 9 15 5 8 1015.4 1015.2 0.0
23/09:00am 24.8 25.5 17.1 62 4.8 SE 9 11 5 6 1015.1 1014.9 0.0
23/08:53am 24.3 25.3 16.8 63 4.6 SSE 7 11 4 6 1015.0 1014.8 0.0
23/08:41am 23.8 25.0 18.2 71 3.5 SSE 9 11 5 6 1014.9 1014.7 0.0
23/08:30am 23.0 24.4 18.6 76 2.8 SE 9 13 5 7 1014.8 1014.6 0.0
23/08:18am 23.0 24.7 18.4 75 2.9 SE 7 9 4 5 1014.7 1014.5 0.0
23/08:00am 22.8 24.4 18.3 76 2.8 SSE 7 9 4 5 1014.4 1014.2 0.0
23/07:30am 21.6 23.0 17.9 79 2.3 S 7 7 4 4 1014.2 1014.0 0.0
23/07:11am 20.5 22.6 18.1 86 1.5 SE 4 6 2 3 1014.1 1013.9 0.0
23/07:00am 20.1 22.3 18.3 89 1.1 SE 4 6 2 3 1014.0 1013.8 0.0
23/06:51am 20.0 21.8 18.4 90 1.0 SSE 6 6 3 3 1013.9 1013.7 0.0
23/06:30am 19.6 21.7 18.1 91 0.9 SE 4 6 2 3 1013.9 1013.7 0.0
23/06:00am 19.9 21.6 18.1 89 1.1 SSE 6 7 3 4 1013.6 1013.4 0.0
23/05:30am 20.0 22.1 18.2 89 1.1 SSE 4 6 2 3 1013.4 1013.2 0.0
23/05:00am 20.2 22.4 18.3 89 1.2 SE 4 6 2 3 1013.4 1013.2 0.0
23/04:30am 20.7 22.9 18.3 86 1.5 SE 4 6 2 3 1013.5 1013.3 0.0
23/04:00am 21.1 22.5 18.7 86 1.5 SSE 9 11 5 6 1013.4 1013.2 0.0
23/03:30am 22.0 23.5 18.8 82 2.0 S 9 11 5 6 1013.5 1013.3 0.0
23/03:00am 22.0 24.1 19.0 83 1.9 SSE 6 6 3 3 1013.7 1013.5 0.0
23/02:30am 22.2 23.8 19.2 83 1.9 S 9 11 5 6 1013.8 1013.6 0.0
23/02:00am 22.3 23.8 19.0 81 2.1 S 9 11 5 6 1014.2 1014.0 0.0
23/01:30am 22.5 24.0 18.9 80 2.3 S 9 11 5 6 1014.5 1014.3 0.0
23/01:00am 22.1 23.8 18.4 79 2.3 S 7 9 4 5 1014.7 1014.5 0.0
23/12:30am 21.6 24.7 18.6 83 1.9 CALM 0 2 0 1 1014.8 1014.6 0.0
23/12:00am 21.7 24.3 18.5 82 2.0 SE 2 4 1 2 1014.9 1014.7 0.0
 
Date/Time
CST
Temp
°C
App
Temp
°C
Dew
Point
°C
Rel
Hum
%
Delta-T
°C
Wind Press
QNH
hPa
Press
MSL
hPa
Rain since
9am
mm
Dir  Spd
km/h
Gust
km/h
Spd
kts
Gust
kts
22/11:30pm 23.2 24.7 18.8 76 2.8 S 9 13 5 7 1014.8 1014.6 0.0
22/11:00pm 23.3 24.9 19.1 77 2.7 S 9 13 5 7 1014.8 1014.6 0.0
22/10:30pm 23.5 24.5 17.7 70 3.6 S 9 9 5 5 1014.8 1014.6 0.0
22/10:00pm 23.8 26.5 17.7 68 3.8 CALM 0 6 0 3 1014.9 1014.7 0.0
22/09:30pm 23.5 25.4 17.7 70 3.6 N 4 6 2 3 1014.6 1014.4 0.0
22/09:00pm 24.0 25.4 17.4 66 4.1 N 6 6 3 3 1014.5 1014.3 0.0
22/08:30pm 24.2 25.7 17.5 66 4.2 N 6 9 3 5 1014.2 1014.0 0.0

Other Formats:

Comma delimited format used in spreadsheet applications
http://www.bom.gov.au/fwo/IDD60801/IDD60801.94120.axf

JavaScript Object Notation format (JSON) in row-major order
http://www.bom.gov.au/fwo/IDD60801/IDD60801.94120.json